Time;durP1;ratioP1;P1;durP2;ratioP2;P2;SDS_P1;SDS_P2;PMS_P1;PMS_P2;Temp;Humidity;BMP_temperature;BMP_pressure;BME280_temperature;BME280_humidity;BME280_pressure;Samples;Min_cycle;Max_cycle;Signal;HPM_P1;HPM_P2
2023/12/30 00:01:15;;;;;;;0.00;0.00;;;11.60;75.40;;;;;;5087872;28;20272;-38
2023/12/30 00:03:42;;;;;;;0.00;0.00;;;11.60;75.50;;;;;;5087419;28;20227;-39
2023/12/30 00:06:10;;;;;;;0.00;0.00;;;11.50;75.40;;;;;;5088463;28;20234;-38
2023/12/30 00:08:37;;;;;;;0.00;0.00;;;11.50;75.40;;;;;;5084425;28;20897;-38
2023/12/30 00:11:06;;;;;;;0.00;0.00;;;11.50;75.40;;;;;;5082034;28;20446;-37
2023/12/30 00:13:36;;;;;;;0.00;0.00;;;11.50;75.40;;;;;;5088997;28;20676;-38
2023/12/30 00:16:04;;;;;;;0.00;0.00;;;11.50;75.40;;;;;;5070932;28;20774;-38
2023/12/30 00:18:35;;;;;;;0.00;0.00;;;11.50;75.30;;;;;;5087369;28;20264;-38
2023/12/30 00:21:05;;;;;;;0.00;0.00;;;11.50;75.30;;;;;;5089145;28;21352;-37
2023/12/30 00:23:35;;;;;;;0.00;0.00;;;11.50;75.40;;;;;;5089086;28;20605;-38
2023/12/30 00:26:25;;;;;;;0.00;0.00;;;11.50;75.40;;;;;;5088817;28;20684;-37
2023/12/30 00:28:57;;;;;;;0.00;0.00;;;11.50;75.40;;;;;;5082146;28;20213;-38
2023/12/30 00:31:26;;;;;;;0.00;0.00;;;11.50;75.40;;;;;;5086859;28;20680;-40
2023/12/30 00:33:59;;;;;;;0.00;0.00;;;11.50;75.50;;;;;;5086848;28;20260;-39
2023/12/30 00:36:28;;;;;;;0.00;0.00;;;11.50;75.60;;;;;;5088502;28;20851;-38
2023/12/30 00:38:56;;;;;;;0.00;0.00;;;11.50;75.50;;;;;;5088444;28;20318;-39
2023/12/30 00:41:26;;;;;;;0.00;0.00;;;11.50;75.40;;;;;;5088431;28;20203;-36
2023/12/30 00:43:58;;;;;;;0.00;0.00;;;11.50;75.40;;;;;;5087108;28;20221;-36
2023/12/30 00:46:25;;;;;;;0.00;0.00;;;11.50;75.40;;;;;;5078940;28;20206;-38
2023/12/30 00:48:55;;;;;;;0.00;0.00;;;11.40;75.30;;;;;;5087907;28;20207;-38
2023/12/30 00:51:27;;;;;;;0.00;0.00;;;11.40;75.30;;;;;;5088336;28;20300;-38
2023/12/30 00:53:56;;;;;;;0.00;0.00;;;11.40;75.40;;;;;;5086971;28;20214;-39
2023/12/30 00:56:26;;;;;;;0.00;0.00;;;11.40;75.40;;;;;;5088206;28;20205;-38
2023/12/30 00:58:56;;;;;;;0.00;0.00;;;11.40;75.40;;;;;;5088341;28;20225;-38
2023/12/30 01:01:23;;;;;;;0.00;0.00;;;11.40;75.50;;;;;;5084247;28;20207;-38
2023/12/30 01:03:53;;;;;;;0.00;0.00;;;11.40;75.40;;;;;;5079752;28;20278;-38
2023/12/30 01:06:21;;;;;;;0.00;0.00;;;11.40;75.40;;;;;;5086541;28;20227;-38
2023/12/30 01:08:50;;;;;;;0.00;0.00;;;11.40;75.40;;;;;;5088515;28;20893;-38
2023/12/30 01:11:20;;;;;;;0.00;0.00;;;11.40;76.20;;;;;;5069971;28;20227;-38
2023/12/30 01:13:47;;;;;;;0.00;0.00;;;11.40;75.40;;;;;;5086598;28;20202;-38
2023/12/30 01:16:16;;;;;;;0.00;0.00;;;11.30;75.40;;;;;;5087581;28;20217;-38
2023/12/30 01:18:44;;;;;;;0.00;0.00;;;11.30;75.40;;;;;;5080874;28;20231;-38
2023/12/30 01:21:17;;;;;;;0.00;0.00;;;11.30;75.40;;;;;;5086205;28;20664;-38
2023/12/30 01:23:44;;;;;;;0.00;0.00;;;11.30;75.40;;;;;;5086319;28;20232;-38
2023/12/30 01:26:16;;;;;;;0.00;0.00;;;11.30;75.40;;;;;;5086195;28;20678;-38
2023/12/30 01:28:43;;;;;;;0.00;0.00;;;11.30;75.40;;;;;;5086337;28;20207;-38
2023/12/30 01:31:21;;;;;;;0.00;0.00;;;11.30;75.40;;;;;;5085894;28;20676;-38
2023/12/30 01:33:53;;;;;;;0.00;0.00;;;11.30;75.50;;;;;;5086018;28;20194;-38
2023/12/30 01:36:25;;;;;;;0.00;0.00;;;11.30;75.50;;;;;;5082867;28;20866;-40
2023/12/30 01:38:57;;;;;;;0.00;0.00;;;11.30;75.50;;;;;;5079861;28;20626;-38
2023/12/30 01:41:26;;;;;;;0.00;0.00;;;11.20;75.50;;;;;;5069623;28;20203;-38
2023/12/30 01:43:56;;;;;;;0.00;0.00;;;11.30;75.70;;;;;;5079750;28;20272;-39
2023/12/30 01:46:32;;;;;;;0.00;0.00;;;11.30;75.70;;;;;;5086888;28;20219;-38
2023/12/30 01:48:59;;;;;;;0.00;0.00;;;11.30;75.70;;;;;;5087483;28;20931;-38
2023/12/30 01:51:29;;;;;;;0.00;0.00;;;11.30;75.60;;;;;;5087500;28;20230;-37
2023/12/30 01:53:58;;;;;;;0.00;0.00;;;11.30;75.70;;;;;;5083980;28;20195;-38
2023/12/30 01:56:27;;;;;;;0.00;0.00;;;11.30;76.40;;;;;;5085648;28;20218;-37
2023/12/30 01:58:59;;;;;;;0.00;0.00;;;11.30;75.70;;;;;;5081238;28;20213;-38
2023/12/30 02:01:31;;;;;;;0.00;0.00;;;11.30;75.70;;;;;;5084665;28;20427;-38
2023/12/30 02:04:00;;;;;;;0.00;0.00;;;11.30;75.70;;;;;;5079307;28;20579;-39
2023/12/30 02:06:30;;;;;;;0.00;0.00;;;11.30;75.70;;;;;;5083729;28;20231;-39
2023/12/30 02:08:57;;;;;;;0.00;0.00;;;11.30;75.70;;;;;;5087482;28;20203;-38
2023/12/30 02:11:25;;;;;;;0.00;0.00;;;11.30;75.70;;;;;;5083047;28;20192;-38
2023/12/30 02:13:52;;;;;;;0.00;0.00;;;11.40;75.90;;;;;;5086316;28;20263;-38
2023/12/30 02:16:19;;;;;;;0.00;0.00;;;11.40;76.00;;;;;;5064281;28;20210;-38
2023/12/30 02:18:47;;;;;;;0.00;0.00;;;11.40;75.90;;;;;;5086945;28;20206;-38
2023/12/30 02:21:17;;;;;;;0.00;0.00;;;11.40;75.90;;;;;;5085701;28;20260;-36
2023/12/30 02:23:55;;;;;;;0.00;0.00;;;11.40;75.90;;;;;;5085476;28;20215;-37
2023/12/30 02:26:24;;;;;;;0.00;0.00;;;11.40;75.90;;;;;;5086023;28;20211;-38
2023/12/30 02:28:51;;;;;;;0.00;0.00;;;11.40;75.80;;;;;;5054846;28;20212;-39
2023/12/30 02:31:21;;;;;;;0.00;0.00;;;11.40;75.80;;;;;;5088285;28;20199;-38
2023/12/30 02:33:50;;;;;;;0.00;0.00;;;11.40;76.50;;;;;;5090468;28;20686;-38
2023/12/30 02:36:18;;;;;;;0.00;0.00;;;11.50;75.70;;;;;;5061449;28;20681;-40
2023/12/30 02:38:45;;;;;;;0.00;0.00;;;11.40;75.70;;;;;;5089494;28;20239;-38
2023/12/30 02:41:18;;;;;;;0.00;0.00;;;11.40;75.60;;;;;;5089270;28;20700;-38
2023/12/30 02:44:02;;;;;;;0.00;0.00;;;11.40;75.70;;;;;;5085919;28;20571;-38
2023/12/30 02:46:30;;;;;;;0.00;0.00;;;11.40;75.70;;;;;;5089928;28;20206;-37
2023/12/30 02:48:57;;;;;;;0.00;0.00;;;11.40;75.60;;;;;;5081143;28;20257;-38
2023/12/30 02:51:29;;;;;;;0.00;0.00;;;11.40;75.60;;;;;;5088504;28;20205;-37
2023/12/30 02:53:57;;;;;;;0.00;0.00;;;11.40;75.70;;;;;;5082599;28;20671;-38
2023/12/30 02:56:26;;;;;;;0.00;0.00;;;11.40;75.70;;;;;;5089104;28;20260;-38
2023/12/30 02:58:56;;;;;;;0.00;0.00;;;11.40;75.80;;;;;;5090569;28;20699;-37
2023/12/30 03:01:29;;;;;;;0.00;0.00;;;11.40;75.80;;;;;;5083182;28;20309;-37
2023/12/30 03:04:03;;;;;;;0.00;0.00;;;11.30;75.80;;;;;;5080845;28;20288;-38
2023/12/30 03:06:33;;;;;;;0.00;0.00;;;11.40;75.80;;;;;;5088308;28;20290;-26
2023/12/30 03:09:01;;;;;;;0.00;0.00;;;11.30;75.70;;;;;;5089140;28;20211;-25
2023/12/30 03:11:32;;;;;;;0.00;0.00;;;11.30;76.40;;;;;;5088857;28;20727;-25
2023/12/30 03:14:02;;;;;;;0.00;0.00;;;11.30;75.70;;;;;;5089862;28;20222;-25
2023/12/30 03:16:32;;;;;;;0.00;0.00;;;11.30;75.70;;;;;;5088219;28;20245;-26
2023/12/30 03:19:04;;;;;;;0.00;0.00;;;11.30;75.70;;;;;;5065258;28;20231;-25
2023/12/30 03:21:36;;;;;;;0.00;0.00;;;11.30;75.60;;;;;;5072128;28;20206;-25
2023/12/30 03:24:07;;;;;;;0.00;0.00;;;11.30;75.70;;;;;;5088667;28;20211;-25
2023/12/30 03:26:42;;;;;;;0.00;0.00;;;11.30;75.70;;;;;;5089002;28;20289;-25
2023/12/30 03:29:09;;;;;;;0.00;0.00;;;11.30;75.70;;;;;;5089952;28;20206;-25
2023/12/30 03:31:37;;;;;;;0.00;0.00;;;11.30;75.80;;;;;;5089028;28;20203;-25
2023/12/30 03:34:08;;;;;;;0.00;0.00;;;11.30;75.70;;;;;;5089553;28;20689;-25
2023/12/30 03:36:38;;;;;;;0.00;0.00;;;11.30;75.90;;;;;;5089708;28;20210;-25
2023/12/30 03:39:08;;;;;;;0.00;0.00;;;11.30;75.80;;;;;;5089931;28;20283;-25
2023/12/30 03:41:39;;;;;;;0.00;0.00;;;11.30;75.90;;;;;;5088840;28;20211;-25
2023/12/30 03:44:07;;;;;;;0.00;0.00;;;11.30;75.90;;;;;;5089785;28;20203;-25
2023/12/30 03:46:36;;;;;;;0.00;0.00;;;11.30;75.90;;;;;;5089401;28;20199;-25
2023/12/30 03:49:06;;;;;;;0.00;0.00;;;11.30;75.80;;;;;;5089487;28;20220;-25
2023/12/30 03:51:38;;;;;;;0.00;0.00;;;11.30;75.80;;;;;;5084909;28;20674;-25
2023/12/30 03:54:07;;;;;;;0.00;0.00;;;11.30;75.90;;;;;;5088190;28;20268;-25
2023/12/30 03:56:38;;;;;;;0.00;0.00;;;11.30;75.90;;;;;;5089385;28;20218;-25
2023/12/30 03:59:07;;;;;;;0.00;0.00;;;11.30;76.00;;;;;;5087415;28;20230;-25
2023/12/30 04:01:37;;;;;;;0.00;0.00;;;11.30;75.90;;;;;;5087294;28;20575;-25
2023/12/30 04:04:05;;;;;;;0.00;0.00;;;11.30;75.90;;;;;;5087761;28;20198;-25
2023/12/30 04:06:32;;;;;;;0.00;0.00;;;11.30;75.90;;;;;;5087673;28;20648;-26
2023/12/30 04:08:59;;;;;;;0.00;0.00;;;11.30;76.00;;;;;;5080635;28;20862;-25
2023/12/30 04:11:26;;;;;;;0.00;0.00;;;11.30;76.00;;;;;;5089207;28;20210;-25
2023/12/30 04:13:56;;;;;;;0.00;0.00;;;11.30;76.00;;;;;;5087491;28;20222;-25
2023/12/30 04:16:26;;;;;;;0.00;0.00;;;11.30;76.10;;;;;;5087136;28;20210;-25
2023/12/30 04:18:58;;;;;;;0.00;0.00;;;11.40;76.10;;;;;;5088733;28;20272;-25
2023/12/30 04:21:27;;;;;;;0.00;0.00;;;11.40;76.20;;;;;;5088738;28;20983;-25
2023/12/30 04:23:59;;;;;;;0.00;0.00;;;11.40;76.10;;;;;;5087628;28;20195;-25
2023/12/30 04:26:31;;;;;;;0.00;0.00;;;11.40;76.20;;;;;;5081312;28;20233;-25
2023/12/30 04:29:00;;;;;;;0.00;0.00;;;11.40;76.10;;;;;;5079251;28;20199;-25
2023/12/30 04:31:27;;;;;;;0.00;0.00;;;11.40;76.10;;;;;;5070128;28;20230;-25
2023/12/30 04:33:57;;;;;;;0.00;0.00;;;11.40;76.20;;;;;;5088295;28;20851;-25
2023/12/30 04:36:24;;;;;;;0.00;0.00;;;11.40;76.10;;;;;;5088493;28;20238;-25
2023/12/30 04:38:51;;;;;;;0.00;0.00;;;11.40;76.10;;;;;;5088797;28;20211;-25
2023/12/30 04:41:21;;;;;;;0.00;0.00;;;11.50;76.10;;;;;;5086757;28;20265;-25
2023/12/30 04:43:48;;;;;;;0.00;0.00;;;11.50;76.10;;;;;;5085204;28;20250;-25
2023/12/30 04:46:16;;;;;;;0.00;0.00;;;11.50;76.10;;;;;;5087782;28;20203;-25
2023/12/30 04:48:43;;;;;;;0.00;0.00;;;11.50;76.10;;;;;;5088125;28;20298;-25
2023/12/30 04:51:13;;;;;;;0.00;0.00;;;11.50;76.20;;;;;;5088694;28;20569;-25
2023/12/30 04:53:40;;;;;;;0.00;0.00;;;11.50;76.30;;;;;;5086997;28;20214;-25
2023/12/30 04:56:16;;;;;;;0.00;0.00;;;11.50;76.20;;;;;;5086834;28;20313;-25
2023/12/30 04:58:46;;;;;;;0.00;0.00;;;11.50;76.20;;;;;;5084600;28;20199;-25
2023/12/30 05:01:18;;;;;;;0.00;0.00;;;11.50;76.10;;;;;;5085598;28;20230;-25
2023/12/30 05:03:45;;;;;;;0.00;0.00;;;11.50;76.10;;;;;;5087974;28;20199;-25
2023/12/30 05:06:22;;;;;;;0.00;0.00;;;11.50;76.10;;;;;;5087956;28;20759;-25
2023/12/30 05:08:53;;;;;;;0.00;0.00;;;11.50;76.20;;;;;;5086779;28;20664;-25
2023/12/30 05:11:23;;;;;;;0.00;0.00;;;11.50;76.10;;;;;;5087995;28;20635;-25
2023/12/30 05:13:51;;;;;;;0.00;0.00;;;11.40;76.10;;;;;;5088214;28;20603;-25
2023/12/30 05:16:18;;;;;;;0.00;0.00;;;11.40;76.00;;;;;;5084553;28;20252;-25
2023/12/30 05:18:50;;;;;;;0.00;0.00;;;11.40;76.00;;;;;;5068183;28;20210;-25
2023/12/30 05:21:19;;;;;;;0.00;0.00;;;11.40;75.90;;;;;;5088181;28;20238;-25
2023/12/30 05:23:47;;;;;;;0.00;0.00;;;11.40;75.90;;;;;;5086648;28;20214;-25
2023/12/30 05:26:16;;;;;;;0.00;0.00;;;11.40;75.90;;;;;;5086382;28;20206;-26
2023/12/30 05:28:46;;;;;;;0.00;0.00;;;11.30;75.90;;;;;;5086422;28;20199;-25
2023/12/30 05:31:18;;;;;;;0.00;0.00;;;11.30;75.90;;;;;;5086010;28;20214;-25
2023/12/30 05:33:45;;;;;;;0.00;0.00;;;11.30;75.90;;;;;;5086621;28;20612;-25
2023/12/30 05:36:20;;;;;;;0.00;0.00;;;11.30;76.00;;;;;;5086285;28;20207;-25
2023/12/30 05:38:49;;;;;;;0.00;0.00;;;11.30;75.90;;;;;;5086419;28;20245;-25
2023/12/30 05:41:19;;;;;;;0.00;0.00;;;11.20;75.80;;;;;;5087374;28;20223;-25
2023/12/30 05:43:51;;;;;;;0.00;0.00;;;11.20;75.90;;;;;;5087770;28;20302;-25
2023/12/30 05:46:18;;;;;;;0.00;0.00;;;11.20;75.90;;;;;;5085564;28;20359;-25
2023/12/30 05:48:45;;;;;;;0.00;0.00;;;11.20;75.90;;;;;;5086018;28;20215;-25
2023/12/30 05:51:13;;;;;;;0.00;0.00;;;11.20;75.90;;;;;;5079265;28;20208;-25
2023/12/30 05:53:41;;;;;;;0.00;0.00;;;11.10;75.90;;;;;;5085997;28;20992;-25
2023/12/30 05:56:08;;;;;;;0.00;0.00;;;11.10;75.80;;;;;;5078550;28;20203;-25
2023/12/30 05:58:37;;;;;;;0.00;0.00;;;11.10;75.80;;;;;;5083977;28;20218;-25
2023/12/30 06:01:07;;;;;;;0.00;0.00;;;11.10;76.60;;;;;;5085608;28;20693;-25
2023/12/30 06:03:37;;;;;;;0.00;0.00;;;11.10;76.60;;;;;;5087568;28;20207;-25
2023/12/30 06:06:07;;;;;;;0.00;0.00;;;11.10;75.90;;;;;;5091337;28;20233;-25
2023/12/30 06:08:37;;;;;;;0.00;0.00;;;11.00;75.80;;;;;;5087449;28;20226;-25
2023/12/30 06:11:06;;;;;;;0.00;0.00;;;11.00;75.90;;;;;;5090618;28;20198;-25
2023/12/30 06:13:39;;;;;;;0.00;0.00;;;11.00;75.90;;;;;;5087094;28;20260;-25
2023/12/30 06:16:10;;;;;;;0.00;0.00;;;11.00;76.00;;;;;;5089118;28;20203;-25
2023/12/30 06:18:37;;;;;;;0.00;0.00;;;11.00;76.00;;;;;;5091102;28;20230;-25
2023/12/30 06:21:07;;;;;;;0.00;0.00;;;11.00;75.90;;;;;;5089501;28;20217;-25
2023/12/30 06:23:35;;;;;;;0.00;0.00;;;11.00;76.10;;;;;;5089492;28;20343;-25
2023/12/30 06:26:05;;;;;;;0.00;0.00;;;11.00;76.10;;;;;;5089714;28;20315;-25
2023/12/30 06:28:34;;;;;;;0.00;0.00;;;11.00;76.10;;;;;;5089749;28;20618;-25
2023/12/30 06:31:04;;;;;;;0.00;0.00;;;11.00;76.10;;;;;;5088235;28;20198;-25
2023/12/30 06:33:34;;;;;;;0.00;0.00;;;11.00;76.10;;;;;;5085790;28;20222;-25
2023/12/30 06:36:02;;;;;;;0.00;0.00;;;11.00;76.10;;;;;;5082731;28;20199;-25
2023/12/30 06:38:29;;;;;;;0.00;0.00;;;11.00;76.20;;;;;;5078047;28;20234;-25
2023/12/30 06:40:56;;;;;;;0.00;0.00;;;11.00;76.20;;;;;;5064807;28;20219;-25
2023/12/30 06:43:26;;;;;;;0.00;0.00;;;11.00;76.20;;;;;;5087150;28;20235;-26
2023/12/30 06:45:56;;;;;;;0.00;0.00;;;11.00;76.20;;;;;;5086840;28;20204;-25
2023/12/30 06:48:25;;;;;;;0.00;0.00;;;11.10;76.20;;;;;;5084139;28;20256;-25
2023/12/30 06:50:54;;;;;;;0.00;0.00;;;11.10;76.20;;;;;;5090629;28;20222;-25
2023/12/30 06:53:23;;;;;;;0.00;0.00;;;11.10;76.20;;;;;;5088058;28;20199;-25
2023/12/30 06:55:53;;;;;;;0.00;0.00;;;11.10;76.20;;;;;;5082290;28;20215;-25
2023/12/30 06:58:22;;;;;;;0.00;0.00;;;11.10;76.20;;;;;;5085796;28;20233;-25
2023/12/30 07:00:54;;;;;;;0.00;0.00;;;11.10;76.30;;;;;;5083542;28;20283;-25
2023/12/30 07:03:26;;;;;;;0.00;0.00;;;11.10;76.20;;;;;;5083104;28;20256;-25
2023/12/30 07:05:56;;;;;;;0.00;0.00;;;11.10;76.30;;;;;;5081544;28;20234;-25
2023/12/30 07:08:28;;;;;;;0.00;0.00;;;11.10;76.30;;;;;;5088866;28;20665;-25
2023/12/30 07:10:58;;;;;;;0.00;0.00;;;11.10;76.20;;;;;;5087309;28;20203;-25
2023/12/30 07:13:27;;;;;;;0.00;0.00;;;11.10;76.20;;;;;;5090273;28;20214;-25
2023/12/30 07:15:57;;;;;;;0.00;0.00;;;11.10;76.20;;;;;;5082605;28;20203;-25
2023/12/30 07:18:24;;;;;;;0.00;0.00;;;11.10;76.20;;;;;;5087078;28;20222;-25
2023/12/30 07:20:54;;;;;;;0.00;0.00;;;11.10;76.30;;;;;;5089193;28;20219;-25
2023/12/30 07:23:23;;;;;;;0.00;0.00;;;11.10;76.20;;;;;;5087858;28;20199;-25
2023/12/30 07:25:51;;;;;;;0.00;0.00;;;11.10;76.20;;;;;;5087874;28;20706;-25
2023/12/30 07:28:18;;;;;;;0.00;0.00;;;11.10;76.20;;;;;;5086356;28;20310;-25
2023/12/30 07:30:45;;;;;;;0.00;0.00;;;11.10;76.20;;;;;;5088238;28;20653;-25
2023/12/30 07:33:13;;;;;;;0.00;0.00;;;11.10;76.10;;;;;;5080693;28;20282;-25
2023/12/30 07:35:43;;;;;;;0.00;0.00;;;11.10;76.20;;;;;;5084024;28;20217;-25
2023/12/30 07:38:10;;;;;;;0.00;0.00;;;11.10;76.20;;;;;;5064902;28;20622;-25
2023/12/30 07:40:39;;;;;;;0.00;0.00;;;11.10;76.20;;;;;;5065479;28;20214;-25
2023/12/30 07:43:08;;;;;;;0.00;0.00;;;11.10;76.20;;;;;;5080758;28;20661;-25
2023/12/30 07:45:40;;;;;;;0.00;0.00;;;11.10;76.20;;;;;;5087848;28;20207;-25
2023/12/30 07:48:09;;;;;;;0.00;0.00;;;11.10;76.30;;;;;;5087105;28;20203;-25
2023/12/30 07:50:37;;;;;;;0.00;0.00;;;11.10;76.20;;;;;;5083790;28;20312;-25
2023/12/30 07:53:04;;;;;;;0.00;0.00;;;11.10;76.20;;;;;;5064758;28;20203;-25
2023/12/30 07:55:34;;;;;;;0.00;0.00;;;11.00;76.20;;;;;;5086626;28;20301;-26
2023/12/30 07:58:02;;;;;;;0.00;0.00;;;11.00;76.20;;;;;;5086351;28;20199;-25
2023/12/30 08:00:29;;;;;;;0.00;0.00;;;11.00;76.30;;;;;;5086801;28;20203;-25
2023/12/30 08:03:00;;;;;;;0.00;0.00;;;11.00;76.30;;;;;;5088511;28;20342;-25
2023/12/30 08:05:28;;;;;;;0.00;0.00;;;11.00;76.30;;;;;;5061462;28;20231;-25
2023/12/30 08:07:55;;;;;;;0.00;0.00;;;11.00;76.30;;;;;;5081805;28;20871;-25
2023/12/30 08:10:29;;;;;;;0.00;0.00;;;11.00;76.40;;;;;;5086383;28;20211;-25
2023/12/30 08:12:57;;;;;;;0.00;0.00;;;11.00;76.30;;;;;;5089103;28;20288;-25
2023/12/30 08:15:26;;;;;;;0.00;0.00;;;11.10;76.40;;;;;;5083867;28;20195;-25
2023/12/30 08:17:54;;;;;;;0.00;0.00;;;11.10;76.40;;;;;;5080254;28;20203;-25
2023/12/30 08:20:28;;;;;;;0.00;0.00;;;11.10;77.20;;;;;;5082741;28;20696;-25
2023/12/30 08:22:56;;;;;;;0.00;0.00;;;11.00;76.40;;;;;;5086867;28;20681;-25
2023/12/30 08:25:23;;;;;;;0.00;0.00;;;11.10;76.50;;;;;;5086614;28;20199;-25
2023/12/30 08:27:51;;;;;;;0.00;0.00;;;11.10;76.50;;;;;;5084532;28;20293;-25
2023/12/30 08:30:18;;;;;;;0.00;0.00;;;11.10;76.50;;;;;;5084609;28;20211;-25
2023/12/30 08:32:45;;;;;;;0.00;0.00;;;11.10;76.50;;;;;;5085902;28;20664;-26
2023/12/30 08:35:13;;;;;;;0.00;0.00;;;11.10;76.60;;;;;;5085258;28;20219;-25
2023/12/30 08:37:45;;;;;;;0.00;0.00;;;11.10;76.50;;;;;;5066757;28;20217;-25
2023/12/30 08:40:14;;;;;;;0.00;0.00;;;11.10;76.50;;;;;;5086147;28;20230;-25
2023/12/30 08:42:44;;;;;;;0.00;0.00;;;11.10;76.60;;;;;;5083426;28;20975;-25
2023/12/30 08:45:18;;;;;;;0.00;0.00;;;11.10;76.60;;;;;;5086440;28;20294;-25
2023/12/30 08:47:47;;;;;;;0.00;0.00;;;11.10;76.60;;;;;;5084107;28;20231;-25
2023/12/30 08:50:15;;;;;;;0.00;0.00;;;11.20;76.70;;;;;;5086023;28;20244;-25
2023/12/30 08:52:44;;;;;;;0.00;0.00;;;11.10;76.60;;;;;;5085602;28;20203;-25
2023/12/30 08:55:14;;;;;;;0.00;0.00;;;11.20;76.60;;;;;;5084730;28;20202;-25
2023/12/30 08:57:44;;;;;;;0.00;0.00;;;11.20;76.60;;;;;;5081651;28;20223;-25
2023/12/30 09:00:19;;;;;;;0.00;0.00;;;11.20;76.70;;;;;;5086028;28;20207;-25
2023/12/30 09:02:47;;;;;;;0.00;0.00;;;11.20;76.70;;;;;;5083639;28;20268;-25
2023/12/30 09:05:20;;;;;;;0.00;0.00;;;11.20;76.80;;;;;;5084244;28;20253;-25
2023/12/30 09:07:51;;;;;;;0.00;0.00;;;11.20;76.80;;;;;;5086118;28;20215;-25
2023/12/30 09:10:21;;;;;;;0.00;0.00;;;11.20;76.80;;;;;;5085664;28;20198;-25
2023/12/30 09:12:50;;;;;;;0.00;0.00;;;11.30;76.80;;;;;;5087122;28;20231;-25
2023/12/30 09:15:19;;;;;;;0.00;0.00;;;11.30;76.70;;;;;;5085509;28;20214;-25
2023/12/30 09:17:47;;;;;;;0.00;0.00;;;11.30;76.70;;;;;;5085952;28;20268;-25
2023/12/30 09:20:17;;;;;;;0.00;0.00;;;11.30;76.80;;;;;;5066854;28;20203;-25
2023/12/30 09:22:44;;;;;;;0.00;0.00;;;11.30;76.80;;;;;;5084542;28;20227;-25
2023/12/30 09:25:14;;;;;;;0.00;0.00;;;11.30;76.70;;;;;;5084015;28;20211;-25
2023/12/30 09:27:41;;;;;;;0.00;0.00;;;11.30;76.60;;;;;;5085310;28;20256;-26
2023/12/30 09:30:09;;;;;;;0.00;0.00;;;11.30;76.70;;;;;;5087561;28;20205;-25
2023/12/30 09:32:41;;;;;;;0.00;0.00;;;11.30;76.60;;;;;;5066400;28;20632;-25
2023/12/30 09:35:11;;;;;;;0.00;0.00;;;11.30;76.60;;;;;;5086031;28;20293;-25
2023/12/30 09:37:38;;;;;;;0.00;0.00;;;11.30;76.60;;;;;;5085120;28;20268;-25
2023/12/30 09:40:09;;;;;;;0.00;0.00;;;11.30;76.60;;;;;;5085376;28;20941;-25
2023/12/30 09:42:37;;;;;;;0.00;0.00;;;11.30;76.60;;;;;;5086761;28;20222;-25
2023/12/30 09:45:09;;;;;;;0.00;0.00;;;11.30;76.60;;;;;;5085659;28;20290;-25
2023/12/30 09:47:37;;;;;;;0.00;0.00;;;11.30;77.40;;;;;;5083067;28;20314;-25
2023/12/30 09:50:07;;;;;;;0.00;0.00;;;11.30;76.70;;;;;;5083666;28;20211;-24
2023/12/30 09:52:36;;;;;;;0.00;0.00;;;11.30;76.60;;;;;;5083646;28;20672;-25
2023/12/30 09:55:09;;;;;;;0.00;0.00;;;11.30;76.70;;;;;;5086298;28;20573;-25
2023/12/30 09:57:37;;;;;;;0.00;0.00;;;11.30;76.70;;;;;;5085924;28;20260;-25
2023/12/30 10:00:12;;;;;;;0.00;0.00;;;11.30;76.80;;;;;;5086141;28;20206;-25
2023/12/30 10:02:39;;;;;;;0.00;0.00;;;11.40;76.80;;;;;;5086591;28;20257;-25
2023/12/30 10:05:10;;;;;;;0.00;0.00;;;11.40;76.80;;;;;;5085070;28;20315;-25
2023/12/30 10:07:37;;;;;;;0.00;0.00;;;11.40;76.80;;;;;;5084523;28;20188;-25
2023/12/30 10:10:05;;;;;;;0.00;0.00;;;11.40;76.80;;;;;;5085238;28;20240;-25
2023/12/30 10:12:35;;;;;;;0.00;0.00;;;11.40;76.80;;;;;;5087551;28;20587;-25
2023/12/30 10:15:03;;;;;;;0.00;0.00;;;11.40;76.90;;;;;;5069234;28;20195;-25
2023/12/30 10:17:31;;;;;;;0.00;0.00;;;11.40;76.90;;;;;;5078075;28;20199;-25
2023/12/30 10:19:59;;;;;;;0.00;0.00;;;11.40;76.90;;;;;;5085524;28;20945;-25
2023/12/30 10:22:27;;;;;;;0.00;0.00;;;11.50;77.00;;;;;;5082101;28;20800;-25
2023/12/30 10:24:56;;;;;;;0.00;0.00;;;11.50;77.00;;;;;;5098568;28;20309;-25
2023/12/30 10:27:24;;;;;;;0.00;0.00;;;11.50;77.80;;;;;;5085487;28;20649;-25
2023/12/30 10:29:56;;;;;;;0.00;0.00;;;11.50;76.80;;;;;;5078726;28;20199;-39
2023/12/30 10:32:30;;;;;;;0.00;0.00;;;11.60;76.90;;;;;;5084830;28;20219;-38
2023/12/30 10:34:59;;;;;;;0.00;0.00;;;11.60;76.80;;;;;;5085493;28;20574;-38
2023/12/30 10:37:29;;;;;;;0.00;0.00;;;11.60;76.90;;;;;;5078911;28;20207;-38
2023/12/30 10:40:02;;;;;;;0.00;0.00;;;11.60;76.90;;;;;;5080949;28;20578;-38
2023/12/30 10:42:30;;;;;;;0.00;0.00;;;11.60;76.90;;;;;;5068453;28;20226;-38
2023/12/30 10:44:59;;;;;;;0.00;0.00;;;11.60;76.80;;;;;;5077804;28;20202;-39
2023/12/30 10:47:27;;;;;;;0.00;0.00;;;11.60;76.90;;;;;;5083609;28;20585;-39
2023/12/30 10:50:04;;;;;;;0.00;0.00;;;11.70;76.90;;;;;;5085613;28;20570;-38
2023/12/30 10:52:46;;;;;;;0.00;0.00;;;11.70;76.90;;;;;;5086533;28;20215;-39
2023/12/30 10:55:19;;;;;;;0.00;0.00;;;11.70;76.90;;;;;;5088188;28;20248;-38
2023/12/30 10:57:59;;;;;;;0.00;0.00;;;11.70;76.90;;;;;;5087698;28;20664;-39
2023/12/30 11:00:29;;;;;;;0.00;0.00;;;11.70;76.90;;;;;;5084624;28;20680;-39
2023/12/30 11:03:01;;;;;;;0.00;0.00;;;11.70;76.70;;;;;;5088535;28;20218;-38
2023/12/30 11:05:43;;;;;;;0.00;0.00;;;11.70;76.90;;;;;;5067375;28;20763;-38
2023/12/30 11:08:12;;;;;;;0.00;0.00;;;11.70;76.90;;;;;;5083935;28;20218;-38
2023/12/30 11:10:43;;;;;;;0.00;0.00;;;11.70;76.90;;;;;;5089117;28;20221;-38
2023/12/30 11:13:15;;;;;;;0.00;0.00;;;11.80;77.00;;;;;;5089977;28;20778;-38
2023/12/30 11:15:42;;;;;;;0.00;0.00;;;11.80;77.00;;;;;;5084102;28;20203;-38
2023/12/30 11:18:17;;;;;;;0.00;0.00;;;11.80;76.80;;;;;;5086001;28;20244;-37
2023/12/30 11:20:47;;;;;;;0.00;0.00;;;11.80;76.90;;;;;;5084868;28;20864;-39
2023/12/30 11:23:19;;;;;;;0.00;0.00;;;11.80;76.90;;;;;;5079365;28;20207;-38
2023/12/30 11:25:49;;;;;;;0.00;0.00;;;11.90;77.00;;;;;;5089027;28;20191;-38
2023/12/30 11:28:22;;;;;;;0.00;0.00;;;11.90;77.10;;;;;;5081111;28;20210;-39
2023/12/30 11:31:03;;;;;;;0.00;0.00;;;11.90;76.90;;;;;;5085840;28;20187;-39
2023/12/30 11:33:34;;;;;;;0.00;0.00;;;11.90;77.00;;;;;;5084476;28;20950;-39
2023/12/30 11:36:05;;;;;;;0.00;0.00;;;11.90;77.40;;;;;;5084748;28;20191;-38
2023/12/30 11:38:38;;;;;;;0.00;0.00;;;12.00;77.00;;;;;;5088365;28;20214;-38
2023/12/30 11:41:10;;;;;;;0.00;0.00;;;12.00;77.00;;;;;;5079669;28;20565;-37
2023/12/30 11:43:39;;;;;;;0.00;0.00;;;12.00;77.00;;;;;;5089016;28;20680;-39
2023/12/30 11:46:11;;;;;;;0.00;0.00;;;12.00;77.00;;;;;;5075110;28;20682;-39
2023/12/30 11:48:44;;;;;;;0.00;0.00;;;12.00;77.10;;;;;;5085034;28;20851;-38
2023/12/30 11:51:20;;;;;;;0.00;0.00;;;12.10;77.10;;;;;;5089291;28;20206;-38
2023/12/30 11:53:47;;;;;;;0.00;0.00;;;12.00;77.10;;;;;;5086825;28;20217;-38
2023/12/30 11:56:24;;;;;;;0.00;0.00;;;12.10;77.10;;;;;;5085270;28;20209;-41
2023/12/30 11:58:52;;;;;;;0.00;0.00;;;12.10;77.10;;;;;;5086723;28;20202;-39
2023/12/30 12:01:21;;;;;;;0.00;0.00;;;12.20;77.10;;;;;;5086681;28;20223;-37
2023/12/30 12:03:52;;;;;;;0.00;0.00;;;12.20;77.20;;;;;;5085269;28;20191;-38
2023/12/30 12:06:20;;;;;;;0.00;0.00;;;12.20;77.10;;;;;;5084605;28;20231;-37
2023/12/30 12:08:49;;;;;;;0.00;0.00;;;12.20;77.20;;;;;;5084247;28;20248;-38
2023/12/30 12:11:17;;;;;;;0.00;0.00;;;12.30;77.70;;;;;;5085939;28;20289;-38
2023/12/30 12:13:49;;;;;;;0.00;0.00;;;12.30;77.20;;;;;;5084369;28;20195;-37
2023/12/30 12:16:21;;;;;;;0.00;0.00;;;12.30;77.20;;;;;;5088088;28;20203;-37
2023/12/30 12:18:49;;;;;;;0.00;0.00;;;12.30;77.00;;;;;;5085486;28;20229;-37
2023/12/30 12:21:18;;;;;;;0.00;0.00;;;12.40;77.00;;;;;;5085871;28;20748;-37
2023/12/30 12:23:49;;;;;;;0.00;0.00;;;12.40;77.10;;;;;;5087791;28;20230;-37
2023/12/30 12:26:16;;;;;;;0.00;0.00;;;12.40;77.10;;;;;;5084930;28;20681;-38
2023/12/30 12:28:46;;;;;;;0.00;0.00;;;12.40;77.00;;;;;;5085382;28;20202;-38
2023/12/30 12:31:17;;;;;;;0.00;0.00;;;12.40;77.00;;;;;;5087136;28;20945;-37
2023/12/30 12:33:44;;;;;;;0.00;0.00;;;12.40;76.80;;;;;;5084797;28;20268;-38
2023/12/30 12:36:19;;;;;;;0.00;0.00;;;12.40;76.90;;;;;;5061062;28;20216;-37
2023/12/30 12:38:51;;;;;;;0.00;0.00;;;12.40;76.90;;;;;;5085915;28;20222;-38
2023/12/30 12:41:18;;;;;;;0.00;0.00;;;12.50;77.00;;;;;;5086764;28;20203;-39
2023/12/30 12:43:45;;;;;;;0.00;0.00;;;12.50;77.00;;;;;;5085903;28;20226;-37
2023/12/30 12:46:14;;;;;;;0.00;0.00;;;12.50;76.80;;;;;;5085227;28;20219;-38
2023/12/30 12:48:43;;;;;;;0.00;0.00;;;12.50;76.90;;;;;;5086485;28;20205;-38
2023/12/30 12:51:13;;;;;;;0.00;0.00;;;12.50;76.90;;;;;;5087184;28;20276;-37
2023/12/30 12:53:42;;;;;;;0.00;0.00;;;12.60;76.90;;;;;;5085764;28;20215;-37
2023/12/30 12:56:11;;;;;;;0.00;0.00;;;12.60;77.00;;;;;;5075738;28;20649;-38
2023/12/30 12:58:40;;;;;;;0.00;0.00;;;12.60;77.00;;;;;;5087061;28;20965;-37
2023/12/30 13:01:13;;;;;;;0.00;0.00;;;12.60;76.90;;;;;;5079441;28;20217;-37